Time;durP1;ratioP1;P1;durP2;ratioP2;P2;SDS_P1;SDS_P2;PMS_P1;PMS_P2;Temp;Humidity;BMP_temperature;BMP_pressure;BME280_temperature;BME280_humidity;BME280_pressure;Samples;Min_cycle;Max_cycle;Signal;HPM_P1;HPM_P2
2023/01/11 00:00:24;;;;;;;5.72;0.90;;;7.50;99.90;;;;;;4976531;28;20698;-74
2023/01/11 00:02:58;;;;;;;0.40;0.40;;;7.50;99.90;;;;;;4993298;28;20038;-74
2023/01/11 00:05:24;;;;;;;2.83;1.15;;;7.50;99.90;;;;;;4993982;28;20042;-74
2023/01/11 00:07:51;;;;;;;5.57;0.50;;;7.50;99.90;;;;;;4976339;28;20502;-74
2023/01/11 00:10:17;;;;;;;0.47;0.22;;;7.50;99.90;;;;;;4991519;28;20030;-74
2023/01/11 00:12:44;;;;;;;5.38;0.77;;;7.50;99.90;;;;;;4992747;28;20033;-74
2023/01/11 00:15:10;;;;;;;3.97;1.33;;;7.50;99.90;;;;;;4991788;28;20034;-74
2023/01/11 00:17:36;;;;;;;1.02;0.52;;;7.60;99.90;;;;;;4993266;28;20019;-74
2023/01/11 00:20:02;;;;;;;1.10;0.30;;;7.60;99.90;;;;;;4992552;28;20031;-73
2023/01/11 00:22:27;;;;;;;0.55;0.50;;;7.60;99.90;;;;;;4993846;28;20037;-74
2023/01/11 00:24:53;;;;;;;1.15;0.43;;;7.60;99.90;;;;;;4992678;28;20034;-74
2023/01/11 00:27:19;;;;;;;7.15;1.05;;;7.70;99.90;;;;;;4993558;28;20038;-74
2023/01/11 00:29:44;;;;;;;3.28;0.40;;;7.80;99.90;;;;;;4969204;28;20076;-74
2023/01/11 00:32:10;;;;;;;1.85;0.70;;;7.90;99.90;;;;;;4993445;28;20371;-75
2023/01/11 00:34:36;;;;;;;1.08;0.60;;;7.90;99.90;;;;;;4992675;28;20117;-75
2023/01/11 00:37:03;;;;;;;1.77;0.38;;;7.90;99.90;;;;;;4975157;28;20037;-74
2023/01/11 00:39:29;;;;;;;0.98;0.65;;;7.90;99.90;;;;;;4992348;28;20438;-74
2023/01/11 00:50:09;;;;;;;0.75;0.55;;;8.00;99.90;;;;;;4992532;28;20049;-74
2023/01/11 00:52:35;;;;;;;6.05;0.60;;;8.00;99.90;;;;;;4993040;28;20038;-74
2023/01/11 00:55:01;;;;;;;5.25;0.88;;;8.00;99.90;;;;;;4992398;28;20144;-74
2023/01/11 00:57:26;;;;;;;0.10;0.10;;;8.10;99.90;;;;;;4992840;28;20072;-74
2023/01/11 00:59:52;;;;;;;0.47;0.40;;;8.10;99.90;;;;;;4992162;28;20041;-74
2023/01/11 01:02:18;;;;;;;5.47;1.25;;;8.10;99.90;;;;;;4975743;28;20042;-74
2023/01/11 01:04:43;;;;;;;0.75;0.63;;;8.10;99.90;;;;;;4992425;28;20556;-74
2023/01/11 01:07:10;;;;;;;5.57;0.75;;;8.10;99.90;;;;;;4992423;28;20113;-72
2023/01/11 01:09:36;;;;;;;1.40;0.50;;;8.10;99.90;;;;;;4991238;28;20061;-73
2023/01/11 01:12:02;;;;;;;4.68;0.57;;;8.00;99.90;;;;;;4992618;28;20077;-74
2023/01/11 01:14:31;;;;;;;2.28;0.70;;;7.80;99.90;;;;;;4990610;28;20449;-74
2023/01/11 01:17:07;;;;;;;1.80;0.73;;;7.60;99.90;;;;;;4991227;28;20033;-74
2023/01/11 01:19:36;;;;;;;1.90;0.68;;;7.50;99.90;;;;;;4991608;28;20521;-74
2023/01/11 01:22:02;;;;;;;11.75;0.77;;;7.50;99.90;;;;;;4975215;28;20030;-74
2023/01/11 01:24:29;;;;;;;2.80;0.77;;;7.40;99.90;;;;;;4991702;28;20132;-74
2023/01/11 01:26:56;;;;;;;0.70;0.40;;;7.40;99.90;;;;;;4992511;28;20113;-74
2023/01/11 01:29:23;;;;;;;1.80;0.43;;;7.40;99.90;;;;;;5026449;23;20041;-73
2023/01/11 01:31:48;;;;;;;1.45;0.30;;;7.30;99.90;;;;;;5032053;28;20033;-73
2023/01/11 01:34:14;;;;;;;2.65;0.50;;;7.30;99.90;;;;;;5030594;28;20579;-73
2023/01/11 01:36:42;;;;;;;1.75;0.60;;;7.30;99.90;;;;;;5022486;28;20033;-72
2023/01/11 01:39:10;;;;;;;2.88;0.75;;;7.20;99.90;;;;;;5027308;28;20104;-73
2023/01/11 01:41:36;;;;;;;1.95;0.38;;;7.30;99.90;;;;;;5031860;28;20030;-73
2023/01/11 01:44:47;;;;;;;1.95;0.68;;;7.20;99.90;;;;;;5030418;28;20520;-75
2023/01/11 01:47:13;;;;;;;1.10;0.25;;;7.20;99.90;;;;;;5031132;28;20032;-74
2023/01/11 01:49:41;;;;;;;0.30;0.30;;;7.30;99.90;;;;;;5028706;28;20041;-75
2023/01/11 01:52:08;;;;;;;3.92;0.95;;;7.50;99.90;;;;;;5031415;28;20482;-74
2023/01/11 01:54:39;;;;;;;4.38;1.92;;;7.50;99.90;;;;;;5029591;28;20030;-74
2023/01/11 01:57:18;;;;;;;1.20;0.90;;;7.50;99.90;;;;;;5031239;28;20029;-74
2023/01/11 01:59:44;;;;;;;3.08;1.23;;;7.60;99.90;;;;;;5029923;28;20037;-74
2023/01/11 02:02:11;;;;;;;2.03;0.40;;;7.60;99.90;;;;;;5029761;28;20116;-74
2023/01/11 02:04:41;;;;;;;5.05;0.85;;;7.70;99.90;;;;;;5024096;28;20104;-74
2023/01/11 02:07:23;;;;;;;3.40;0.73;;;7.90;99.90;;;;;;5016924;28;20036;-74
2023/01/11 02:10:08;;;;;;;0.90;0.65;;;8.00;99.90;;;;;;5026757;28;20041;-73
2023/01/11 02:12:46;;;;;;;0.90;0.40;;;8.10;99.90;;;;;;5030098;28;20172;-74
2023/01/11 02:15:12;;;;;;;0.55;0.43;;;8.10;99.90;;;;;;5028566;28;20037;-73
2023/01/11 02:17:38;;;;;;;1.27;0.50;;;8.20;99.90;;;;;;5029338;28;20108;-74
2023/01/11 02:20:16;;;;;;;4.43;0.85;;;8.20;99.90;;;;;;5029700;28;20116;-74
2023/01/11 02:23:29;;;;;;;0.25;0.22;;;8.10;99.90;;;;;;5030632;28;20033;-74
2023/01/11 02:26:15;;;;;;;2.15;0.80;;;8.10;99.90;;;;;;5027701;28;20037;-72
2023/01/11 02:28:58;;;;;;;1.83;0.50;;;8.10;99.90;;;;;;5029294;28;20091;-73
2023/01/11 02:31:30;;;;;;;0.35;0.20;;;8.20;99.90;;;;;;5007317;28;20076;-74
2023/01/11 02:34:43;;;;;;;1.15;0.45;;;8.10;99.90;;;;;;5029612;28;20045;-73
2023/01/11 02:38:00;;;;;;;0.88;0.65;;;8.10;99.90;;;;;;5028160;28;20382;-73
2023/01/11 02:40:44;;;;;;;3.63;0.73;;;8.10;99.90;;;;;;5021068;28;20412;-73
2023/01/11 02:46:26;;;;;;;5.80;0.52;;;8.00;99.90;;;;;;5029974;28;20033;-73
2023/01/11 02:49:30;;;;;;;2.08;0.60;;;8.10;99.90;;;;;;5024791;28;20405;-72
2023/01/11 02:52:02;;;;;;;8.48;1.05;;;8.00;99.90;;;;;;5010584;28;20050;-73
2023/01/11 02:54:29;;;;;;;2.47;0.63;;;8.00;99.90;;;;;;5029413;28;20631;-73
2023/01/11 02:56:59;;;;;;;1.35;0.28;;;8.00;99.90;;;;;;5026857;28;20029;-72
2023/01/11 02:59:31;;;;;;;1.02;0.73;;;8.00;99.90;;;;;;5029938;28;20422;-72
2023/01/11 03:01:58;;;;;;;2.95;0.50;;;8.10;99.90;;;;;;5031531;28;20051;-73
2023/01/11 03:04:35;;;;;;;0.82;0.70;;;8.10;99.90;;;;;;5034402;28;20021;-73
2023/01/11 03:07:15;;;;;;;1.42;0.60;;;8.10;99.90;;;;;;5031052;28;20087;-72
2023/01/11 03:10:00;;;;;;;3.92;0.75;;;8.20;99.90;;;;;;5032972;28;20033;-75
2023/01/11 03:12:54;;;;;;;0.60;0.30;;;8.10;99.90;;;;;;5032479;28;20450;-73
2023/01/11 03:16:02;;;;;;;3.35;0.60;;;8.10;99.90;;;;;;5027017;28;20041;-72
2023/01/11 03:18:48;;;;;;;5.30;0.50;;;8.10;99.90;;;;;;5030465;28;20041;-73
2023/01/11 03:21:29;;;;;;;0.38;0.20;;;8.10;99.90;;;;;;5032883;28;20370;-73
2023/01/11 03:24:16;;;;;;;1.35;0.65;;;8.20;99.90;;;;;;5031780;28;20109;-73
2023/01/11 03:27:15;;;;;;;3.83;0.80;;;8.30;99.90;;;;;;5030025;28;20037;-73
2023/01/11 03:29:55;;;;;;;0.57;0.30;;;8.20;99.90;;;;;;5029054;28;20036;-73
2023/01/11 03:32:35;;;;;;;0.82;0.35;;;8.20;99.90;;;;;;5032365;28;20079;-73
2023/01/11 03:35:20;;;;;;;3.83;0.75;;;8.30;99.90;;;;;;5032787;28;20436;-74
2023/01/11 03:38:01;;;;;;;5.05;1.88;;;8.30;99.90;;;;;;5019521;28;20033;-74
2023/01/11 03:40:36;;;;;;;0.75;0.28;;;8.30;99.90;;;;;;5026041;28;20124;-74
2023/01/11 03:43:12;;;;;;;4.38;0.57;;;8.30;99.90;;;;;;5031958;28;20120;-74
2023/01/11 03:46:04;;;;;;;2.22;0.45;;;8.30;99.90;;;;;;5032523;28;20040;-73
2023/01/11 03:48:53;;;;;;;1.50;0.82;;;8.30;99.90;;;;;;5027417;28;20116;-74
2023/01/11 03:51:28;;;;;;;0.65;0.52;;;8.30;99.90;;;;;;5013740;28;20073;-74
2023/01/11 03:53:59;;;;;;;1.88;0.75;;;8.40;99.90;;;;;;5029471;28;20045;-74
2023/01/11 03:56:38;;;;;;;1.13;0.43;;;8.30;99.90;;;;;;5032177;28;20557;-74
2023/01/11 03:59:04;;;;;;;1.20;0.28;;;8.30;99.90;;;;;;5023810;28;20043;-74
2023/01/11 04:01:30;;;;;;;5.38;0.63;;;8.30;99.90;;;;;;5032271;28;20029;-74
2023/01/11 04:03:56;;;;;;;0.52;0.30;;;8.30;99.90;;;;;;5031203;28;20551;-74
2023/01/11 04:06:23;;;;;;;1.15;0.55;;;8.40;99.90;;;;;;5031902;28;20571;-74
2023/01/11 04:08:49;;;;;;;4.15;1.88;;;8.40;99.90;;;;;;5014834;28;20060;-74
2023/01/11 04:11:14;;;;;;;3.22;1.00;;;8.40;99.90;;;;;;5032171;28;20826;-74
2023/01/11 04:13:40;;;;;;;0.77;0.38;;;8.50;99.90;;;;;;5031900;28;20083;-75
2023/01/11 04:16:06;;;;;;;0.50;0.30;;;8.40;99.90;;;;;;5033130;28;20539;-74
2023/01/11 04:18:31;;;;;;;0.50;0.20;;;8.50;99.90;;;;;;5031618;28;20040;-74
2023/01/11 04:20:58;;;;;;;1.00;0.40;;;8.50;99.90;;;;;;5032975;28;20029;-74
2023/01/11 04:23:24;;;;;;;2.95;0.88;;;8.50;99.90;;;;;;5030919;28;20112;-74
2023/01/11 04:25:49;;;;;;;3.53;0.60;;;8.50;99.90;;;;;;5033386;28;20117;-74
2023/01/11 04:28:15;;;;;;;2.28;0.77;;;8.50;99.90;;;;;;5030299;28;20028;-74
2023/01/11 04:30:41;;;;;;;2.75;0.45;;;8.50;99.90;;;;;;5033062;28;20068;-74
2023/01/11 04:33:06;;;;;;;0.28;0.28;;;8.50;99.90;;;;;;5013197;28;20041;-73
2023/01/11 04:35:32;;;;;;;3.00;1.30;;;8.50;99.90;;;;;;5031706;28;20460;-73
2023/01/11 04:37:58;;;;;;;6.72;0.40;;;8.50;99.90;;;;;;5030391;28;20064;-73
2023/01/11 04:40:24;;;;;;;0.30;0.20;;;8.50;99.90;;;;;;5033077;28;20525;-74
2023/01/11 04:42:50;;;;;;;0.50;0.30;;;8.50;99.90;;;;;;5030696;28;20034;-74
2023/01/11 04:45:16;;;;;;;3.30;0.47;;;8.50;99.90;;;;;;5031378;28;20044;-74
2023/01/11 04:47:41;;;;;;;1.05;0.60;;;8.50;99.90;;;;;;5030891;28;20539;-74
2023/01/11 04:50:08;;;;;;;3.22;1.02;;;8.60;99.90;;;;;;5031153;28;20048;-74
2023/01/11 04:52:34;;;;;;;2.47;0.90;;;8.50;99.90;;;;;;5030638;28;20026;-74
2023/01/11 04:55:00;;;;;;;0.60;0.40;;;8.50;99.90;;;;;;5032528;28;20049;-75
2023/01/11 04:57:26;;;;;;;0.55;0.30;;;8.60;99.90;;;;;;5031048;28;20033;-74
2023/01/11 04:59:51;;;;;;;0.90;0.50;;;8.60;99.90;;;;;;5032116;28;20030;-74
2023/01/11 05:02:18;;;;;;;0.65;0.30;;;8.60;99.90;;;;;;5030196;28;20025;-74
2023/01/11 05:04:43;;;;;;;2.75;0.40;;;8.60;99.90;;;;;;5022704;28;20045;-74
2023/01/11 05:07:10;;;;;;;0.52;0.30;;;8.60;99.90;;;;;;5030333;28;20029;-75
2023/01/11 05:09:36;;;;;;;3.15;0.73;;;8.60;99.90;;;;;;5032131;28;20053;-75
2023/01/11 05:12:02;;;;;;;1.80;0.77;;;8.50;99.90;;;;;;5030122;28;20057;-73
2023/01/11 05:14:28;;;;;;;2.22;0.95;;;8.50;99.90;;;;;;5030641;28;20029;-72
2023/01/11 05:16:53;;;;;;;0.70;0.50;;;8.50;99.90;;;;;;5029904;28;20030;-73
2023/01/11 05:19:19;;;;;;;0.88;0.43;;;8.50;99.90;;;;;;5031967;28;20034;-73
2023/01/11 05:21:45;;;;;;;1.27;0.40;;;8.60;99.90;;;;;;5030739;28;20037;-73
2023/01/11 05:24:15;;;;;;;1.02;0.40;;;8.60;99.90;;;;;;5030950;28;20067;-73
2023/01/11 05:26:43;;;;;;;1.73;0.70;;;8.60;99.90;;;;;;5031039;28;20541;-74
2023/01/11 05:29:15;;;;;;;1.13;1.02;;;8.50;99.90;;;;;;5030708;28;20409;-73
2023/01/11 05:31:41;;;;;;;1.25;0.70;;;8.50;99.90;;;;;;5029075;28;20398;-73
2023/01/11 05:34:08;;;;;;;4.00;0.95;;;8.60;99.90;;;;;;4988103;28;20039;-73
2023/01/11 05:36:35;;;;;;;1.00;0.60;;;8.50;99.90;;;;;;5031599;28;20032;-73
2023/01/11 05:39:01;;;;;;;1.13;0.70;;;8.50;99.90;;;;;;5029385;28;20381;-72
2023/01/11 05:41:27;;;;;;;0.98;0.40;;;8.50;99.90;;;;;;5013902;28;20132;-73
2023/01/11 05:46:41;;;;;;;0.95;0.40;;;8.40;99.90;;;;;;5023831;28;20096;-68
2023/01/11 05:49:08;;;;;;;0.70;0.50;;;8.40;99.90;;;;;;5028314;28;20057;-84
2023/01/11 05:51:36;;;;;;;1.25;0.57;;;8.50;99.90;;;;;;5008821;28;20037;-78
2023/01/11 05:54:04;;;;;;;2.05;1.10;;;8.40;99.90;;;;;;5011365;28;20029;-76
2023/01/11 05:56:30;;;;;;;1.83;0.93;;;8.50;99.90;;;;;;5031168;28;20433;-76
2023/01/11 05:58:56;;;;;;;1.42;0.75;;;8.50;99.90;;;;;;5028975;28;20083;-77
2023/01/11 06:01:24;;;;;;;3.80;0.77;;;8.50;99.90;;;;;;5031453;28;20037;-77
2023/01/11 06:03:50;;;;;;;0.93;0.65;;;8.50;99.90;;;;;;5029373;28;20551;-77
2023/01/11 06:06:18;;;;;;;1.10;0.60;;;8.50;99.90;;;;;;5011365;28;20083;-76
2023/01/11 06:08:43;;;;;;;1.83;0.95;;;8.50;99.90;;;;;;5026723;28;20045;-75
2023/01/11 06:11:09;;;;;;;1.80;0.70;;;8.50;99.90;;;;;;5027418;28;20440;-75
2023/01/11 06:13:35;;;;;;;2.20;0.95;;;8.50;99.90;;;;;;5030004;28;20025;-76
2023/01/11 06:16:10;;;;;;;6.15;0.77;;;8.50;99.90;;;;;;5020863;28;20116;-75
2023/01/11 06:18:45;;;;;;;0.82;0.52;;;8.50;99.90;;;;;;5026995;28;20036;-75
2023/01/11 06:21:12;;;;;;;1.50;1.05;;;8.60;99.90;;;;;;5019811;28;20037;-74
2023/01/11 06:23:43;;;;;;;0.93;0.30;;;8.60;99.90;;;;;;5030980;28;20104;-76
2023/01/11 06:26:13;;;;;;;3.37;0.97;;;8.60;99.90;;;;;;5028789;28;20481;-75
2023/01/11 06:28:40;;;;;;;3.13;1.53;;;8.60;99.90;;;;;;5029352;28;20041;-74
2023/01/11 06:31:07;;;;;;;2.38;0.65;;;8.70;99.90;;;;;;5028770;28;20017;-75
2023/01/11 06:33:33;;;;;;;1.90;0.50;;;8.70;99.90;;;;;;5030304;28;20057;-73
2023/01/11 06:36:09;;;;;;;1.88;1.13;;;8.70;99.90;;;;;;5029313;28;20034;-73
2023/01/11 06:38:36;;;;;;;5.22;1.05;;;8.70;99.90;;;;;;5028913;28;20171;-72
2023/01/11 06:41:07;;;;;;;6.03;0.60;;;8.70;99.90;;;;;;5028815;28;20029;-75
2023/01/11 06:43:33;;;;;;;1.02;0.50;;;8.80;99.90;;;;;;5029393;28;20031;-77
2023/01/11 06:45:59;;;;;;;1.35;0.52;;;8.80;99.90;;;;;;5013100;28;20025;-73
2023/01/11 06:48:26;;;;;;;0.35;0.30;;;8.80;99.90;;;;;;5008526;28;20029;-75
2023/01/11 06:50:56;;;;;;;1.15;0.47;;;9.00;99.90;;;;;;5027496;28;20079;-79
2023/01/11 06:53:23;;;;;;;0.65;0.50;;;9.00;99.90;;;;;;5030350;28;20045;-76
2023/01/11 06:55:54;;;;;;;0.52;0.32;;;9.10;99.90;;;;;;5027174;28;20049;-74
2023/01/11 06:58:22;;;;;;;0.95;0.55;;;9.10;99.90;;;;;;5022334;28;20030;-74
2023/01/11 07:00:48;;;;;;;0.77;0.35;;;9.10;99.90;;;;;;5025523;28;20037;-74
2023/01/11 07:03:14;;;;;;;3.00;0.80;;;9.20;99.90;;;;;;5021131;28;20025;-74
2023/01/11 07:05:41;;;;;;;0.40;0.25;;;9.20;99.90;;;;;;5027678;28;20030;-74
2023/01/11 07:08:07;;;;;;;1.55;0.28;;;9.30;99.90;;;;;;5010945;28;20029;-77
2023/01/11 07:10:33;;;;;;;0.28;0.20;;;9.40;99.90;;;;;;5026737;28;20021;-76
2023/01/11 07:12:58;;;;;;;0.75;0.45;;;9.30;99.90;;;;;;5027509;28;20404;-77
2023/01/11 07:15:24;;;;;;;2.90;0.50;;;9.30;99.90;;;;;;5030490;28;20033;-76
2023/01/11 07:17:55;;;;;;;2.95;0.88;;;9.30;99.90;;;;;;5011526;28;20497;-71
2023/01/11 07:20:23;;;;;;;0.45;0.20;;;9.30;99.90;;;;;;5014219;28;20489;-78
2023/01/11 07:22:49;;;;;;;1.08;0.57;;;9.40;99.90;;;;;;5028093;28;20037;-75
2023/01/11 07:25:15;;;;;;;1.02;0.45;;;9.30;99.90;;;;;;5008605;28;20140;-72
2023/01/11 07:27:41;;;;;;;3.95;1.98;;;9.30;99.90;;;;;;5027499;28;20108;-73
2023/01/11 07:30:09;;;;;;;0.88;0.80;;;9.40;99.90;;;;;;5041740;23;20124;-73
2023/01/11 07:32:35;;;;;;;2.83;1.52;;;9.40;99.90;;;;;;5028706;28;20056;-72
2023/01/11 07:35:01;;;;;;;8.93;0.68;;;9.50;99.90;;;;;;5029165;28;20605;-73
2023/01/11 07:37:27;;;;;;;0.77;0.40;;;9.40;99.90;;;;;;4995304;28;20052;-73
2023/01/11 07:39:52;;;;;;;1.13;0.47;;;9.50;99.90;;;;;;5024665;28;20721;-74
2023/01/11 07:45:04;;;;;;;0.68;0.50;;;9.50;99.90;;;;;;5009202;28;20029;-73
2023/01/11 07:47:29;;;;;;;2.50;0.75;;;9.60;99.90;;;;;;5009147;28;20030;-72
2023/01/11 07:49:55;;;;;;;1.05;0.50;;;9.60;99.90;;;;;;5012558;28;20040;-73
2023/01/11 07:52:21;;;;;;;0.30;0.28;;;9.60;99.90;;;;;;5013610;28;20394;-72
2023/01/11 07:54:46;;;;;;;6.00;0.43;;;9.60;99.90;;;;;;5012695;28;20065;-73
2023/01/11 07:57:12;;;;;;;7.38;0.63;;;9.70;99.90;;;;;;5013039;28;20500;-72
2023/01/11 07:59:38;;;;;;;4.88;0.65;;;9.70;99.90;;;;;;5011644;28;20038;-72
2023/01/11 08:02:04;;;;;;;0.40;0.28;;;9.70;99.90;;;;;;5013091;28;20030;-72
2023/01/11 08:04:29;;;;;;;0.47;0.45;;;9.70;99.90;;;;;;5013332;28;20033;-72
2023/01/11 08:06:55;;;;;;;0.75;0.50;;;9.60;99.90;;;;;;5012705;28;20429;-72
2023/01/11 08:09:21;;;;;;;4.25;0.73;;;9.60;99.90;;;;;;5013195;28;20026;-72
2023/01/11 08:14:39;;;;;;;2.20;0.45;;;9.70;99.90;;;;;;4999775;28;20021;-73
2023/01/11 08:17:14;;;;;;;8.63;0.65;;;9.70;99.90;;;;;;5011608;28;20063;-73
2023/01/11 08:19:41;;;;;;;0.47;0.13;;;9.80;99.90;;;;;;5010716;28;20037;-72
2023/01/11 08:22:07;;;;;;;4.03;0.70;;;9.80;99.90;;;;;;5012954;28;20030;-73
2023/01/11 08:24:35;;;;;;;1.20;0.40;;;9.70;99.90;;;;;;4994540;28;20030;-73
2023/01/11 08:27:02;;;;;;;0.70;0.50;;;9.70;99.90;;;;;;5012908;28;20030;-73
2023/01/11 08:29:27;;;;;;;0.55;0.30;;;9.70;99.90;;;;;;5012614;28;20045;-73
2023/01/11 08:31:53;;;;;;;0.65;0.43;;;9.70;99.90;;;;;;4995127;28;20030;-73
2023/01/11 08:34:19;;;;;;;0.10;0.10;;;9.70;99.90;;;;;;5013238;28;20056;-73
2023/01/11 08:36:45;;;;;;;7.78;0.70;;;9.70;99.90;;;;;;5011337;28;20034;-73
2023/01/11 08:39:11;;;;;;;3.10;2.08;;;9.70;99.90;;;;;;5012596;28;20034;-73
2023/01/11 08:41:37;;;;;;;0.55;0.35;;;9.60;99.90;;;;;;5012187;28;20048;-73
2023/01/11 08:44:04;;;;;;;4.38;0.70;;;9.60;99.90;;;;;;5012466;28;20034;-74
2023/01/11 08:46:32;;;;;;;0.65;0.25;;;9.50;99.90;;;;;;5010505;28;20038;-73
2023/01/11 08:49:01;;;;;;;1.67;0.35;;;9.50;99.90;;;;;;5012577;28;20104;-73
2023/01/11 08:51:27;;;;;;;0.10;0.10;;;9.50;99.90;;;;;;4992151;28;20068;-73
2023/01/11 08:53:52;;;;;;;0.57;0.15;;;9.50;99.90;;;;;;5012445;28;20034;-72
2023/01/11 08:56:18;;;;;;;1.33;0.70;;;9.50;99.90;;;;;;4991751;28;20029;-72
2023/01/11 08:58:44;;;;;;;0.52;0.20;;;9.50;99.90;;;;;;5010824;28;20038;-73
2023/01/11 09:01:10;;;;;;;0.95;0.43;;;9.50;99.90;;;;;;5011780;28;20034;-73
2023/01/11 09:03:36;;;;;;;0.10;0.10;;;9.50;99.90;;;;;;5011878;28;20049;-74
2023/01/11 09:06:03;;;;;;;5.60;0.60;;;9.50;99.90;;;;;;4994517;28;20764;-73
2023/01/11 09:08:29;;;;;;;1.30;0.68;;;9.60;99.90;;;;;;5010781;28;20026;-73
2023/01/11 09:10:55;;;;;;;0.68;0.40;;;9.50;99.90;;;;;;5010801;28;20034;-73
2023/01/11 09:13:21;;;;;;;0.70;0.22;;;9.50;99.90;;;;;;5008093;28;20038;-72
2023/01/11 09:15:47;;;;;;;0.25;0.10;;;9.60;99.90;;;;;;5004227;28;20398;-75
2023/01/11 09:18:14;;;;;;;5.15;0.52;;;9.50;99.90;;;;;;5000582;28;20033;-73
2023/01/11 09:20:40;;;;;;;1.25;0.50;;;9.50;99.90;;;;;;5006925;28;20045;-73
2023/01/11 09:23:05;;;;;;;0.38;0.38;;;9.60;99.90;;;;;;5009395;28;20030;-72
2023/01/11 09:25:31;;;;;;;0.20;0.13;;;9.60;99.90;;;;;;5010756;28;20057;-72
2023/01/11 09:27:57;;;;;;;1.23;0.68;;;9.60;99.90;;;;;;5013488;28;20026;-76
2023/01/11 09:30:23;;;;;;;3.03;0.52;;;9.60;99.90;;;;;;5009274;28;20113;-73
2023/01/11 09:32:51;;;;;;;0.88;0.35;;;9.60;99.90;;;;;;4996748;28;20034;-75
2023/01/11 09:35:18;;;;;;;0.82;0.43;;;9.60;99.90;;;;;;5004805;28;20025;-75
2023/01/11 09:37:53;;;;;;;7.00;0.50;;;9.60;99.90;;;;;;5013636;28;20034;-75
2023/01/11 09:40:59;;;;;;;0.15;0.15;;;9.60;99.90;;;;;;5008913;28;20105;-76
2023/01/11 09:43:29;;;;;;;0.32;0.25;;;9.70;99.90;;;;;;4992709;28;20045;-75
2023/01/11 09:46:03;;;;;;;0.47;0.30;;;9.70;99.90;;;;;;5009278;28;20108;-75
2023/01/11 09:48:42;;;;;;;0.63;0.52;;;9.70;99.90;;;;;;4995082;28;20433;-74
2023/01/11 09:51:14;;;;;;;1.17;0.10;;;9.70;99.90;;;;;;4993623;28;20061;-74
2023/01/11 09:53:48;;;;;;;2.83;1.02;;;9.70;99.90;;;;;;5009098;28;20022;-76
2023/01/11 09:56:23;;;;;;;4.68;0.32;;;9.70;99.90;;;;;;4994317;28;20053;-75
2023/01/11 09:59:23;;;;;;;0.75;0.40;;;9.70;99.90;;;;;;5009159;28;20054;-75
2023/01/11 10:02:25;;;;;;;1.05;0.60;;;9.60;99.90;;;;;;5008043;28;20036;-76
2023/01/11 10:05:22;;;;;;;0.52;0.30;;;9.60;99.90;;;;;;5006801;28;20042;-75
2023/01/11 10:07:58;;;;;;;1.88;0.90;;;9.60;99.90;;;;;;5009716;28;20042;-75
2023/01/11 10:10:46;;;;;;;0.98;0.20;;;9.60;99.90;;;;;;5009406;28;20038;-75
2023/01/11 10:13:22;;;;;;;4.18;0.82;;;9.60;99.90;;;;;;5009914;28;20125;-74
2023/01/11 10:16:23;;;;;;;0.80;0.30;;;9.60;99.90;;;;;;4992715;28;20037;-76
2023/01/11 10:19:39;;;;;;;3.20;1.02;;;9.70;99.90;;;;;;4992400;28;20034;-74
2023/01/11 10:22:22;;;;;;;0.55;0.35;;;9.70;99.90;;;;;;5008479;28;20038;-74
2023/01/11 10:25:06;;;;;;;0.85;0.57;;;9.70;99.90;;;;;;5009974;28;20034;-76
2023/01/11 10:27:48;;;;;;;0.50;0.30;;;9.70;99.90;;;;;;4987364;28;20045;-75
2023/01/11 10:36:31;;;;;;;1.65;0.30;;;9.80;99.90;;;;;;5010050;28;20061;-73
2023/01/11 10:39:30;;;;;;;0.50;0.32;;;9.80;99.90;;;;;;5003697;28;20037;-73
2023/01/11 10:42:11;;;;;;;0.65;0.40;;;9.70;99.90;;;;;;4992811;28;20041;-73
2023/01/11 10:44:47;;;;;;;0.45;0.32;;;9.80;99.90;;;;;;5008709;28;20478;-71
2023/01/11 10:47:20;;;;;;;0.15;0.15;;;9.80;99.90;;;;;;5009113;28;20042;-74
2023/01/11 10:51:02;;;;;;;6.35;0.73;;;9.80;99.90;;;;;;5008346;28;20022;-79
2023/01/11 10:54:35;;;;;;;0.70;0.52;;;9.80;99.90;;;;;;4933803;29;20043;-74
2023/01/11 10:57:18;;;;;;;0.47;0.40;;;9.80;99.90;;;;;;4940306;29;20514;-70
2023/01/11 11:00:21;;;;;;;0.13;0.13;;;9.80;99.90;;;;;;4958199;28;20039;-68
2023/01/11 11:03:31;;;;;;;0.68;0.47;;;9.80;99.90;;;;;;4949787;29;20058;-68
2023/01/11 11:06:12;;;;;;;2.53;1.30;;;9.80;99.90;;;;;;4959334;28;20054;-71
2023/01/11 11:09:18;;;;;;;1.98;0.75;;;9.80;99.90;;;;;;4953355;28;20047;-69
2023/01/11 11:11:59;;;;;;;0.75;0.45;;;9.80;99.90;;;;;;4956510;28;20043;-68
2023/01/11 11:14:48;;;;;;;0.95;0.45;;;9.80;99.90;;;;;;4968493;28;20034;-73
2023/01/11 11:17:34;;;;;;;1.00;0.50;;;9.80;99.90;;;;;;4953123;28;20552;-67
2023/01/11 11:20:08;;;;;;;0.43;0.20;;;9.80;99.90;;;;;;4968098;28;20081;-69
2023/01/11 11:22:34;;;;;;;0.68;0.43;;;9.80;99.90;;;;;;4958695;28;20081;-67
2023/01/11 11:25:28;;;;;;;2.00;0.60;;;9.90;99.90;;;;;;5005511;28;20030;-67
2023/01/11 11:28:22;;;;;;;0.40;0.40;;;9.90;99.90;;;;;;5012721;28;20035;-67
2023/01/11 11:30:51;;;;;;;1.08;0.50;;;9.90;99.90;;;;;;5012850;28;20060;-69
2023/01/11 11:33:34;;;;;;;0.30;0.25;;;9.90;99.90;;;;;;5012610;28;20037;-68
2023/01/11 11:36:10;;;;;;;0.52;0.30;;;10.00;99.90;;;;;;5011952;28;20026;-66
2023/01/11 11:39:21;;;;;;;2.83;0.50;;;10.00;99.90;;;;;;5013333;28;20030;-68
2023/01/11 11:41:51;;;;;;;0.43;0.40;;;10.00;99.90;;;;;;4992738;28;20161;-66
2023/01/11 11:44:24;;;;;;;1.48;0.47;;;10.00;99.90;;;;;;4998929;28;20132;-69
2023/01/11 11:47:05;;;;;;;2.10;0.75;;;10.00;99.90;;;;;;5013315;28;20123;-68
2023/01/11 11:49:34;;;;;;;3.90;0.73;;;10.10;99.90;;;;;;5011148;28;20037;-68
2023/01/11 11:52:03;;;;;;;0.43;0.35;;;10.10;99.90;;;;;;5011945;28;20038;-70
2023/01/11 11:54:42;;;;;;;1.83;0.60;;;10.10;99.90;;;;;;5009508;28;20026;-69
2023/01/11 11:57:21;;;;;;;1.02;0.60;;;10.10;99.90;;;;;;5003981;28;20401;-69
2023/01/11 11:59:53;;;;;;;0.60;0.60;;;10.10;99.90;;;;;;5012409;28;20167;-69
2023/01/11 12:02:30;;;;;;;1.85;0.52;;;10.20;99.90;;;;;;5004744;28;20054;-71
2023/01/11 12:05:07;;;;;;;1.73;0.50;;;10.20;99.90;;;;;;5011119;28;20036;-67
2023/01/11 12:07:46;;;;;;;1.38;1.13;;;10.30;99.90;;;;;;4991928;28;20057;-68
2023/01/11 12:10:26;;;;;;;0.90;0.57;;;10.30;99.90;;;;;;5006109;28;20113;-67
2023/01/11 12:13:01;;;;;;;2.95;1.00;;;10.30;99.90;;;;;;5013326;28;20769;-70
2023/01/11 12:15:33;;;;;;;3.08;1.02;;;10.30;99.90;;;;;;5010910;28;20033;-65
2023/01/11 12:18:37;;;;;;;0.77;0.20;;;10.30;99.90;;;;;;5011891;28;20041;-67
2023/01/11 12:21:29;;;;;;;1.73;0.52;;;10.30;99.90;;;;;;5012413;28;20177;-69
2023/01/11 12:24:18;;;;;;;1.83;1.08;;;10.30;99.90;;;;;;4995078;28;20505;-69
2023/01/11 12:27:11;;;;;;;2.47;1.58;;;10.30;99.90;;;;;;5010907;28;20042;-70
2023/01/11 12:29:56;;;;;;;0.52;0.47;;;10.30;99.90;;;;;;5012212;28;20034;-69
2023/01/11 12:33:02;;;;;;;10.80;1.05;;;10.30;99.90;;;;;;5004757;28;20038;-68
2023/01/11 12:35:55;;;;;;;0.68;0.50;;;10.30;99.90;;;;;;5012066;28;20033;-67
2023/01/11 12:39:03;;;;;;;0.55;0.38;;;10.30;99.90;;;;;;4992842;28;20036;-67
2023/01/11 12:42:04;;;;;;;1.77;0.68;;;10.30;99.90;;;;;;4993126;28;20053;-67
2023/01/11 12:45:01;;;;;;;1.25;0.60;;;10.30;99.90;;;;;;5008603;28;20050;-68
2023/01/11 12:47:47;;;;;;;1.58;1.00;;;10.30;99.90;;;;;;4988228;28;20034;-68
2023/01/11 12:50:36;;;;;;;1.17;0.50;;;10.30;99.90;;;;;;5010195;28;20034;-68
2023/01/11 12:53:53;;;;;;;1.88;0.80;;;10.30;99.90;;;;;;5011145;28;20046;-68
2023/01/11 12:56:33;;;;;;;2.08;0.73;;;10.30;99.90;;;;;;5000499;28;20476;-67
2023/01/11 12:59:25;;;;;;;3.47;0.52;;;10.20;99.90;;;;;;5011364;28;20449;-67
2023/01/11 13:02:06;;;;;;;2.13;0.40;;;10.30;99.90;;;;;;5011876;28;20038;-67
2023/01/11 13:04:38;;;;;;;1.25;0.73;;;10.20;99.90;;;;;;5011159;28;20029;-67
2023/01/11 13:07:15;;;;;;;0.45;0.43;;;10.30;99.90;;;;;;5011770;28;20149;-67
2023/01/11 13:09:48;;;;;;;0.63;0.47;;;10.30;99.90;;;;;;5010893;28;20116;-67
2023/01/11 13:12:26;;;;;;;0.40;0.40;;;10.30;99.90;;;;;;5011807;28;20586;-67
2023/01/11 13:15:22;;;;;;;0.70;0.50;;;10.30;99.90;;;;;;5008735;28;20115;-67
2023/01/11 13:18:02;;;;;;;1.27;0.75;;;10.40;99.90;;;;;;5009103;28;20108;-67
2023/01/11 13:20:50;;;;;;;0.40;0.40;;;10.40;99.90;;;;;;5010545;28;20033;-67
2023/01/11 13:23:42;;;;;;;0.63;0.50;;;10.40;99.90;;;;;;4991098;28;20038;-67
2023/01/11 13:26:51;;;;;;;0.50;0.32;;;10.50;99.90;;;;;;4990290;28;20570;-68
2023/01/11 13:29:35;;;;;;;0.93;0.30;;;10.60;99.90;;;;;;5008825;28;20048;-66
2023/01/11 13:32:12;;;;;;;2.60;0.68;;;10.60;99.90;;;;;;5019022;23;20066;-69
2023/01/11 13:34:51;;;;;;;1.70;0.30;;;10.60;99.90;;;;;;4987855;28;20030;-69
2023/01/11 13:37:28;;;;;;;0.35;0.20;;;10.70;99.90;;;;;;4993827;28;20054;-69
2023/01/11 13:40:25;;;;;;;1.30;0.43;;;10.70;99.90;;;;;;5009034;28;20132;-69
2023/01/11 13:43:11;;;;;;;2.17;1.55;;;10.80;99.90;;;;;;4985367;28;20030;-69
2023/01/11 13:45:54;;;;;;;3.22;0.38;;;10.90;99.90;;;;;;4970324;28;20038;-69
2023/01/11 13:48:32;;;;;;;3.58;0.60;;;11.00;99.90;;;;;;4967311;28;20030;-70
2023/01/11 13:51:22;;;;;;;0.47;0.38;;;11.10;99.90;;;;;;4957429;28;20033;-70
2023/01/11 13:54:26;;;;;;;1.20;0.40;;;11.10;99.90;;;;;;4974350;28;20059;-70
2023/01/11 13:57:02;;;;;;;0.90;0.68;;;11.20;99.90;;;;;;4949164;28;20507;-69
2023/01/11 13:59:39;;;;;;;1.15;0.90;;;11.20;99.90;;;;;;4990119;28;20133;-69